createdAt,value
2019-01-26T00:01:14.664Z,20.87
2019-01-26T00:03:51.441Z,19.13
2019-01-26T00:06:25.175Z,26.37
2019-01-26T00:08:58.799Z,17.10
2019-01-26T00:11:39.840Z,20.70
2019-01-26T00:14:13.463Z,20.00
2019-01-26T00:16:50.091Z,21.67
2019-01-26T00:19:23.722Z,20.70
2019-01-26T00:21:57.651Z,20.27
2019-01-26T00:24:43.216Z,23.43
2019-01-26T00:27:16.949Z,16.53
2019-01-26T00:29:50.865Z,29.50
2019-01-26T00:32:25.516Z,23.80
2019-01-26T00:34:59.149Z,18.20
2019-01-26T00:37:40.983Z,19.37
2019-01-26T00:40:15.059Z,23.20
2019-01-26T00:42:48.789Z,24.53
2019-01-26T00:45:29.647Z,18.23
2019-01-26T00:48:03.381Z,19.20
2019-01-26T00:50:40.968Z,18.53
2019-01-26T00:53:14.626Z,19.87
2019-01-26T00:55:48.405Z,25.73
2019-01-26T00:58:23.743Z,24.73
2019-01-26T01:00:57.683Z,19.07
2019-01-26T01:03:40.722Z,21.83
2019-01-26T01:06:14.423Z,27.03
2019-01-26T01:08:55.575Z,13.77
2019-01-26T01:11:29.204Z,16.30
2019-01-26T01:14:06.066Z,15.87
2019-01-26T01:16:39.776Z,20.43
2019-01-26T01:19:18.182Z,19.80
2019-01-26T01:21:51.849Z,21.73
2019-01-26T01:24:25.648Z,15.47
2019-01-26T01:27:05.671Z,20.07
2019-01-26T01:29:39.418Z,23.73
2019-01-26T01:32:13.185Z,21.57
2019-01-26T01:34:55.005Z,17.87
2019-01-26T01:37:28.644Z,23.93
2019-01-26T01:40:02.417Z,23.83
2019-01-26T01:42:41.178Z,20.03
2019-01-26T01:45:18.029Z,20.27
2019-01-26T01:47:51.699Z,24.10
2019-01-26T01:50:28.458Z,16.63
2019-01-26T01:53:02.193Z,21.57
2019-01-26T01:55:35.957Z,22.30
2019-01-26T01:58:21.675Z,23.07
2019-01-26T02:00:55.305Z,23.50
2019-01-26T02:03:28.967Z,26.43
2019-01-26T02:06:02.674Z,24.73
2019-01-26T02:08:41.278Z,23.23
2019-01-26T02:11:14.907Z,25.97
2019-01-26T02:13:48.592Z,22.03
2019-01-26T02:16:22.354Z,18.47
2019-01-26T02:18:56.059Z,21.93
2019-01-26T02:21:29.828Z,19.80
2019-01-26T02:24:03.613Z,27.07
2019-01-26T02:26:37.293Z,21.50
2019-01-26T02:29:14.294Z,24.63
2019-01-26T02:31:47.917Z,26.90
2019-01-26T02:34:21.546Z,24.00
2019-01-26T02:37:16.541Z,28.97
2019-01-26T02:39:50.274Z,25.33
2019-01-26T02:42:23.970Z,22.73
2019-01-26T02:45:13.885Z,25.97
2019-01-26T02:47:47.981Z,27.10
2019-01-26T02:50:21.626Z,27.70
2019-01-26T02:52:55.666Z,27.27
2019-01-26T02:55:29.417Z,26.83
2019-01-26T02:58:06.712Z,29.90
2019-01-26T03:00:40.639Z,28.13
2019-01-26T03:03:14.413Z,28.47
2019-01-26T03:05:48.086Z,28.87
2019-01-26T03:08:21.856Z,28.70
2019-01-26T03:10:55.795Z,25.40
2019-01-26T03:13:29.407Z,27.53
2019-01-26T03:16:03.513Z,30.63
2019-01-26T03:18:55.351Z,28.57
2019-01-26T03:21:28.939Z,28.10
2019-01-26T03:24:09.022Z,29.20
2019-01-26T03:26:42.625Z,27.53
2019-01-26T03:29:19.254Z,30.30
2019-01-26T03:31:52.929Z,31.37
2019-01-26T03:34:36.696Z,30.70
2019-01-26T03:37:10.391Z,29.60
2019-01-26T03:39:46.987Z,24.53
2019-01-26T03:42:20.702Z,28.30
2019-01-26T03:44:54.395Z,23.23
2019-01-26T03:47:31.129Z,28.53
2019-01-26T03:50:07.992Z,28.73
2019-01-26T03:52:41.711Z,30.50
2019-01-26T03:55:18.346Z,28.27
2019-01-26T03:57:52.154Z,28.40
2019-01-26T04:00:27.291Z,27.53
2019-01-26T04:03:04.170Z,28.97
2019-01-26T04:05:37.837Z,27.80
2019-01-26T04:08:11.608Z,26.77
2019-01-26T04:10:45.366Z,29.00
2019-01-26T04:13:19.089Z,29.37
2019-01-26T04:15:52.821Z,25.83
2019-01-26T04:18:26.597Z,28.60
2019-01-26T04:21:00.228Z,29.33
2019-01-26T04:23:34.270Z,27.20
2019-01-26T04:26:17.272Z,26.80
2019-01-26T04:28:51.013Z,31.13
2019-01-26T04:31:36.690Z,29.03
2019-01-26T04:34:10.369Z,28.63
2019-01-26T04:36:44.006Z,29.67
2019-01-26T04:39:32.712Z,30.47
2019-01-26T04:42:06.483Z,29.73
2019-01-26T04:44:40.218Z,29.53
2019-01-26T04:47:13.921Z,29.97
2019-01-26T04:49:47.594Z,29.67
2019-01-26T04:52:21.302Z,28.57
2019-01-26T04:54:58.704Z,29.83
2019-01-26T04:57:32.351Z,29.43
2019-01-26T05:00:09.021Z,29.97
2019-01-26T05:02:42.734Z,28.77
2019-01-26T05:05:16.769Z,31.27
2019-01-26T05:07:50.543Z,28.67
2019-01-26T05:10:39.852Z,29.43
2019-01-26T05:13:29.980Z,26.13
2019-01-26T05:16:03.958Z,29.07
2019-01-26T05:18:37.664Z,29.00
2019-01-26T05:21:16.571Z,29.07
2019-01-26T05:23:50.645Z,30.60
2019-01-26T05:26:28.362Z,28.13
2019-01-26T05:29:02.067Z,32.17
2019-01-26T05:31:35.758Z,31.53
2019-01-26T05:34:12.330Z,29.30
2019-01-26T05:36:45.926Z,29.47
2019-01-26T05:39:43.748Z,27.77
2019-01-26T05:42:17.345Z,26.23
2019-01-26T05:44:50.992Z,25.73
2019-01-26T05:47:24.665Z,28.67
2019-01-26T05:49:58.697Z,29.33
2019-01-26T05:52:34.357Z,26.77
2019-01-26T05:55:09.524Z,24.97
2019-01-26T05:57:45.287Z,29.07
2019-01-26T06:00:23.338Z,29.00
2019-01-26T06:02:57.101Z,28.40
2019-01-26T06:05:31.152Z,27.17
2019-01-26T06:08:05.012Z,25.30
2019-01-26T06:10:45.990Z,29.23
2019-01-26T06:13:19.766Z,26.20
2019-01-26T06:15:55.789Z,26.10
2019-01-26T06:18:29.758Z,27.47
2019-01-26T06:21:03.346Z,26.87
2019-01-26T06:27:18.172Z,27.43
2019-01-26T06:29:51.758Z,25.60
2019-01-26T06:32:46.875Z,26.57
2019-01-26T06:35:20.618Z,28.17
2019-01-26T06:38:06.494Z,27.87
2019-01-26T06:40:40.227Z,29.73
2019-01-26T06:43:17.550Z,30.30
2019-01-26T06:45:51.218Z,23.00
2019-01-26T06:48:24.915Z,29.00
2019-01-26T06:51:17.836Z,28.40
2019-01-26T06:53:51.507Z,26.10
2019-01-26T06:56:25.146Z,27.20
2019-01-26T06:59:18.533Z,26.97
2019-01-26T07:02:17.623Z,26.17
2019-01-26T07:04:52.936Z,23.57
2019-01-26T07:07:26.636Z,26.73
2019-01-26T07:10:12.636Z,28.60
2019-01-26T07:12:46.695Z,24.30
2019-01-26T07:15:20.733Z,25.87
2019-01-26T07:17:59.102Z,28.30
2019-01-26T07:20:32.837Z,28.77
2019-01-26T07:23:31.197Z,25.03
2019-01-26T07:26:05.051Z,28.10
2019-01-26T07:28:38.824Z,28.00
2019-01-26T07:31:12.436Z,26.50
2019-01-26T07:33:46.247Z,29.03
2019-01-26T07:36:20.007Z,28.50
2019-01-26T07:38:54.125Z,26.17
2019-01-26T07:41:44.139Z,27.83
2019-01-26T07:44:18.122Z,26.60
2019-01-26T07:46:57.414Z,27.53
2019-01-26T07:49:31.076Z,28.90
2019-01-26T07:52:04.780Z,29.10
2019-01-26T07:54:38.538Z,28.10
2019-01-26T07:57:12.254Z,28.90
2019-01-26T07:59:53.750Z,30.30
2019-01-26T08:02:33.151Z,28.87
2019-01-26T08:05:11.818Z,29.87
2019-01-26T08:07:45.652Z,29.20
2019-01-26T08:10:26.069Z,28.63
2019-01-26T08:12:59.950Z,23.97
2019-01-26T08:15:34.466Z,30.90
2019-01-26T08:18:10.558Z,29.23
2019-01-26T08:20:46.424Z,27.93
2019-01-26T08:23:20.114Z,28.53
2019-01-26T08:25:53.896Z,27.80
2019-01-26T08:28:52.859Z,26.20
2019-01-26T08:31:26.623Z,27.87
2019-01-26T08:34:00.329Z,32.47
2019-01-26T08:36:34.009Z,27.73
2019-01-26T08:39:24.700Z,27.20
2019-01-26T08:42:24.371Z,25.27
2019-01-26T08:45:23.671Z,26.37
2019-01-26T08:47:57.702Z,26.63
2019-01-26T08:50:54.662Z,26.63
2019-01-26T08:56:25.709Z,28.10
2019-01-26T08:59:23.578Z,29.37
2019-01-26T09:05:10.734Z,26.17
2019-01-26T09:07:47.842Z,21.00
2019-01-26T09:10:21.570Z,23.37
2019-01-26T09:12:55.318Z,26.30
2019-01-26T09:15:29.370Z,25.10
2019-01-26T09:18:03.290Z,22.20
2019-01-26T09:20:38.133Z,24.37
2019-01-26T09:23:11.907Z,23.00
2019-01-26T09:25:50.897Z,25.43
2019-01-26T09:28:27.661Z,23.57
2019-01-26T09:31:01.279Z,25.37
2019-01-26T09:33:35.024Z,24.40
2019-01-26T09:36:14.051Z,24.40
2019-01-26T09:38:47.841Z,23.77
2019-01-26T09:41:26.996Z,25.20
2019-01-26T09:44:00.735Z,26.40
2019-01-26T09:46:34.473Z,25.80
2019-01-26T09:49:15.397Z,24.67
2019-01-26T09:51:49.141Z,25.80
2019-01-26T09:54:22.902Z,26.00
2019-01-26T09:56:59.694Z,25.97
2019-01-26T09:59:33.311Z,26.20
2019-01-26T10:02:07.066Z,26.17
2019-01-26T10:04:51.076Z,25.27
2019-01-26T10:07:24.692Z,25.50
2019-01-26T10:10:00.281Z,25.23
2019-01-26T10:12:33.879Z,26.10
2019-01-26T10:15:20.218Z,22.43
2019-01-26T10:17:53.940Z,23.73
2019-01-26T10:20:33.155Z,26.43
2019-01-26T10:23:06.877Z,25.67
2019-01-26T10:25:41.074Z,26.00
2019-01-26T10:28:15.026Z,24.37
2019-01-26T10:30:55.567Z,25.63
2019-01-26T10:33:29.297Z,23.33
2019-01-26T10:36:04.874Z,23.60
2019-01-26T10:38:41.420Z,23.53
2019-01-26T10:41:32.210Z,23.43
2019-01-26T10:44:09.742Z,22.77
2019-01-26T10:46:47.154Z,21.40
2019-01-26T10:49:20.753Z,21.93
2019-01-26T10:51:54.372Z,21.83
2019-01-26T10:54:28.096Z,21.57
2019-01-26T10:57:01.861Z,21.27
2019-01-26T10:59:35.916Z,21.40
2019-01-26T11:02:32.640Z,21.83
2019-01-26T11:05:13.015Z,21.97
2019-01-26T11:07:46.716Z,21.17
2019-01-26T11:10:20.443Z,20.50
2019-01-26T11:12:54.533Z,21.73
2019-01-26T11:15:28.304Z,21.70
2019-01-26T11:18:05.162Z,22.33
2019-01-26T11:20:38.763Z,22.93
2019-01-26T11:23:12.495Z,22.07
2019-01-26T11:25:46.196Z,20.63
2019-01-26T11:28:20.009Z,22.47
2019-01-26T11:31:05.811Z,21.33
2019-01-26T11:33:39.435Z,21.47
2019-01-26T11:36:13.144Z,22.77
2019-01-26T11:38:53.081Z,22.90
2019-01-26T11:41:27.077Z,22.37
2019-01-26T11:44:00.744Z,23.70
2019-01-26T11:46:34.503Z,22.77
2019-01-26T11:49:14.932Z,23.00
2019-01-26T11:52:07.800Z,23.47
2019-01-26T11:54:43.200Z,23.67
2019-01-26T11:57:18.156Z,23.57
2019-01-26T11:59:53.520Z,22.13
2019-01-26T12:02:39.124Z,23.97
2019-01-26T12:05:14.445Z,22.10
2019-01-26T12:08:05.715Z,23.30
2019-01-26T12:10:39.476Z,23.40
2019-01-26T12:13:19.346Z,22.63
2019-01-26T12:15:53.119Z,24.23
2019-01-26T12:18:26.856Z,21.97
2019-01-26T12:21:04.427Z,21.60
2019-01-26T12:23:38.091Z,20.37
2019-01-26T12:26:11.721Z,19.47
2019-01-26T12:29:05.304Z,20.33
2019-01-26T12:32:03.596Z,19.17
2019-01-26T12:34:38.523Z,19.03
2019-01-26T12:37:26.852Z,17.67
2019-01-26T12:40:00.556Z,16.90
2019-01-26T12:42:35.712Z,18.77
2019-01-26T12:45:27.541Z,18.63
2019-01-26T12:48:01.289Z,17.80
2019-01-26T12:50:37.359Z,19.83
2019-01-26T12:53:11.291Z,18.43
2019-01-26T12:55:48.521Z,19.13
2019-01-26T12:58:25.439Z,19.30
2019-01-26T13:00:59.171Z,21.63
2019-01-26T13:03:32.939Z,20.57
2019-01-26T13:06:06.869Z,18.83
2019-01-26T13:08:41.406Z,19.90
2019-01-26T13:11:36.731Z,18.80
2019-01-26T13:14:10.492Z,18.13
2019-01-26T13:17:10.403Z,18.17
2019-01-26T13:19:44.079Z,17.47
2019-01-26T13:22:18.063Z,18.77
2019-01-26T13:24:51.786Z,17.37
2019-01-26T13:27:28.464Z,16.57
2019-01-26T13:30:02.151Z,15.13
2019-01-26T13:32:40.287Z,15.83
2019-01-26T13:35:14.611Z,14.97
2019-01-26T13:38:06.813Z,16.27
2019-01-26T13:40:40.538Z,16.50
2019-01-26T13:43:18.151Z,16.27
2019-01-26T13:45:51.884Z,15.87
2019-01-26T13:48:30.546Z,17.83
2019-01-26T13:51:04.539Z,16.70
2019-01-26T13:53:41.709Z,17.07
2019-01-26T13:56:15.446Z,17.13
2019-01-26T13:58:49.094Z,16.30
2019-01-26T14:01:26.052Z,16.53
2019-01-26T14:04:00.169Z,15.73
2019-01-26T14:06:33.948Z,14.67
2019-01-26T14:09:08.075Z,16.27
2019-01-26T14:11:41.838Z,16.97
2019-01-26T14:14:15.839Z,23.27
2019-01-26T14:16:49.545Z,17.30
2019-01-26T14:19:23.189Z,16.70
2019-01-26T14:21:56.824Z,16.20
2019-01-26T14:24:33.970Z,18.30
2019-01-26T14:27:07.743Z,19.23
2019-01-26T14:29:45.522Z,17.67
2019-01-26T14:32:19.183Z,17.13
2019-01-26T14:35:01.146Z,14.83
2019-01-26T14:37:35.247Z,14.30
2019-01-26T14:40:12.097Z,16.37
2019-01-26T14:42:45.860Z,13.63
2019-01-26T14:46:00.367Z,12.97
2019-01-26T14:48:34.059Z,13.53
2019-01-26T14:51:07.779Z,12.47
2019-01-26T14:53:47.823Z,14.20
2019-01-26T14:56:21.646Z,14.77
2019-01-26T14:59:16.059Z,14.23
2019-01-26T15:01:49.655Z,14.20
2019-01-26T15:04:26.615Z,13.40
2019-01-26T15:07:00.307Z,12.90
2019-01-26T15:09:33.882Z,13.07
2019-01-26T15:12:09.011Z,13.17
2019-01-26T15:14:42.695Z,12.90
2019-01-26T15:17:18.693Z,11.17
2019-01-26T15:19:52.623Z,11.50
2019-01-26T15:22:45.706Z,10.80
2019-01-26T15:25:19.427Z,11.47
2019-01-26T15:27:53.209Z,11.13
2019-01-26T15:30:29.247Z,11.03
2019-01-26T15:33:03.110Z,11.67
2019-01-26T15:35:45.676Z,11.40
2019-01-26T15:38:19.366Z,11.10
2019-01-26T15:40:53.448Z,11.70
2019-01-26T15:43:27.138Z,12.90
2019-01-26T15:46:00.774Z,11.30
2019-01-26T15:48:34.458Z,13.87
2019-01-26T15:51:08.150Z,11.30
2019-01-26T15:53:42.712Z,13.70
2019-01-26T15:56:22.513Z,13.30
2019-01-26T15:59:03.646Z,13.50
2019-01-26T16:01:46.542Z,13.73
2019-01-26T16:04:26.225Z,13.07
2019-01-26T16:06:59.905Z,13.97
2019-01-26T16:09:33.922Z,13.87
2019-01-26T16:12:07.574Z,14.60
2019-01-26T16:14:41.269Z,13.27
2019-01-26T16:17:15.021Z,13.90
2019-01-26T16:19:48.781Z,14.13
2019-01-26T16:22:22.561Z,13.60
2019-01-26T16:24:56.325Z,13.77
2019-01-26T16:27:30.087Z,13.83
2019-01-26T16:30:05.551Z,13.57
2019-01-26T16:32:39.314Z,14.73
2019-01-26T16:35:18.129Z,13.10
2019-01-26T16:37:52.243Z,12.13
2019-01-26T16:40:31.813Z,12.53
2019-01-26T16:43:05.675Z,11.83
2019-01-26T16:45:39.507Z,12.90
2019-01-26T16:48:19.012Z,13.20
2019-01-26T16:51:04.893Z,14.93
2019-01-26T16:53:38.583Z,13.47
2019-01-26T16:56:13.348Z,13.83
2019-01-26T16:58:53.109Z,12.43
2019-01-26T17:01:33.280Z,13.13
2019-01-26T17:04:06.997Z,13.40
2019-01-26T17:06:43.820Z,14.47
2019-01-26T17:09:17.444Z,14.40
2019-01-26T17:11:51.222Z,13.37
2019-01-26T17:14:25.107Z,14.33
2019-01-26T17:16:58.696Z,15.27
2019-01-26T17:19:32.296Z,14.50
2019-01-26T17:22:09.083Z,15.47
2019-01-26T17:24:42.816Z,15.43
2019-01-26T17:27:16.511Z,15.70
2019-01-26T17:29:50.183Z,16.43
2019-01-26T17:32:23.812Z,16.17
2019-01-26T17:34:57.477Z,18.37
2019-01-26T17:37:46.404Z,17.07
2019-01-26T17:40:22.147Z,17.20
2019-01-26T17:43:00.533Z,17.60
2019-01-26T17:45:34.447Z,17.63
2019-01-26T17:48:08.306Z,17.03
2019-01-26T17:50:42.553Z,17.33
2019-01-26T17:53:25.361Z,18.13
2019-01-26T17:55:59.029Z,17.47
2019-01-26T17:58:33.033Z,18.47
2019-01-26T18:01:21.829Z,16.03
2019-01-26T18:03:55.626Z,15.23
2019-01-26T18:06:29.316Z,18.47
2019-01-26T18:09:04.799Z,17.60
2019-01-26T18:11:38.490Z,15.80
2019-01-26T18:14:12.336Z,14.67
2019-01-26T18:16:46.020Z,15.30
2019-01-26T18:19:19.613Z,13.97
2019-01-26T18:21:53.310Z,13.20
2019-01-26T18:24:26.974Z,14.53
2019-01-26T18:27:12.611Z,13.30
2019-01-26T18:29:46.309Z,12.83
2019-01-26T18:32:20.931Z,14.10
2019-01-26T18:34:54.954Z,13.50
2019-01-26T18:37:28.592Z,12.07
2019-01-26T18:40:27.123Z,12.00
2019-01-26T18:43:00.906Z,14.03
2019-01-26T18:45:34.658Z,12.17
2019-01-26T18:48:14.496Z,12.77
2019-01-26T18:50:56.112Z,13.47
2019-01-26T18:53:25.550Z,12.83
2019-01-26T18:55:59.212Z,11.73
2019-01-26T18:58:32.842Z,12.73
2019-01-26T19:01:15.936Z,12.20
2019-01-26T19:04:01.563Z,12.13
2019-01-26T19:06:35.262Z,11.93
2019-01-26T19:09:09.794Z,12.70
2019-01-26T19:11:43.415Z,12.70
2019-01-26T19:14:17.143Z,12.03
2019-01-26T19:16:54.511Z,12.07
2019-01-26T19:19:31.188Z,11.70
2019-01-26T19:22:05.338Z,11.03
2019-01-26T19:24:39.064Z,11.00
2019-01-26T19:27:13.631Z,11.03
2019-01-26T19:29:47.296Z,9.73
2019-01-26T19:32:27.324Z,10.83
2019-01-26T19:35:00.988Z,10.37
2019-01-26T19:37:34.608Z,9.97
2019-01-26T19:40:22.620Z,9.43
2019-01-26T19:43:08.466Z,11.07
2019-01-26T19:45:42.115Z,10.47
2019-01-26T19:48:28.058Z,10.47
2019-01-26T19:51:01.728Z,10.37
2019-01-26T19:53:37.402Z,11.20
2019-01-26T19:56:21.020Z,10.67
2019-01-26T19:58:55.015Z,9.63
2019-01-26T20:01:30.775Z,10.47
2019-01-26T20:04:11.042Z,9.83
2019-01-26T20:06:44.798Z,10.43
2019-01-26T20:09:31.070Z,8.97
2019-01-26T20:12:04.995Z,9.67
2019-01-26T20:14:38.673Z,8.93
2019-01-26T20:17:12.342Z,9.77
2019-01-26T20:20:11.782Z,9.37
2019-01-26T20:22:58.150Z,9.53
2019-01-26T20:25:31.953Z,10.10
2019-01-26T20:28:20.685Z,9.40
2019-01-26T20:30:57.670Z,9.43
2019-01-26T20:33:53.305Z,10.50
2019-01-26T20:36:27.141Z,10.73
2019-01-26T20:39:01.080Z,10.20
2019-01-26T20:41:34.866Z,10.27
2019-01-26T20:44:20.744Z,10.10
2019-01-26T20:46:54.456Z,8.70
2019-01-26T20:49:28.045Z,9.60
2019-01-26T20:52:01.692Z,10.70
2019-01-26T20:54:35.342Z,9.37
2019-01-26T20:57:16.388Z,9.50
2019-01-26T20:59:50.040Z,9.27
2019-01-26T21:02:26.085Z,7.97
2019-01-26T21:04:59.659Z,9.63
2019-01-26T21:07:35.990Z,8.57
2019-01-26T21:10:30.953Z,9.47
2019-01-26T21:13:05.405Z,10.17
2019-01-26T21:15:39.176Z,8.50
2019-01-26T21:18:18.884Z,9.60
2019-01-26T21:20:55.557Z,7.73
2019-01-26T21:23:32.404Z,9.60
2019-01-26T21:26:08.939Z,9.03
2019-01-26T21:28:43.790Z,6.77
2019-01-26T21:31:17.560Z,8.93
2019-01-26T21:33:56.050Z,8.23
2019-01-26T21:36:29.628Z,7.40
2019-01-26T21:39:05.311Z,7.80
2019-01-26T21:41:39.063Z,8.57
2019-01-26T21:44:12.667Z,7.77
2019-01-26T21:46:46.467Z,7.13
2019-01-26T21:49:20.056Z,8.40
2019-01-26T21:51:54.096Z,8.90
2019-01-26T21:54:35.704Z,8.37
2019-01-26T21:57:18.741Z,8.03
2019-01-26T21:59:55.822Z,7.93
2019-01-26T22:02:29.542Z,7.53
2019-01-26T22:05:03.202Z,7.10
2019-01-26T22:07:36.901Z,7.37
2019-01-26T22:10:24.819Z,8.67
2019-01-26T22:12:58.501Z,7.80
2019-01-26T22:15:32.263Z,9.37
2019-01-26T22:18:07.960Z,9.80
2019-01-26T22:20:42.557Z,8.50
2019-01-26T22:23:20.046Z,7.93
2019-01-26T22:25:53.699Z,8.57
2019-01-26T22:28:32.153Z,8.97
2019-01-26T22:31:05.888Z,8.30
2019-01-26T22:33:39.501Z,8.33
2019-01-26T22:36:13.175Z,8.23
2019-01-26T22:38:47.309Z,7.73
2019-01-26T22:41:20.991Z,8.83
2019-01-26T22:43:54.716Z,8.23
2019-01-26T22:46:28.492Z,7.17
2019-01-26T22:49:11.146Z,7.90
2019-01-26T22:51:44.823Z,8.43
2019-01-26T22:54:18.477Z,7.03
2019-01-26T22:57:04.296Z,7.40
2019-01-26T22:59:37.880Z,7.47
2019-01-26T23:02:13.613Z,8.73
2019-01-26T23:04:50.373Z,8.50
2019-01-26T23:07:27.513Z,7.97
2019-01-26T23:10:21.035Z,7.33
2019-01-26T23:13:00.892Z,8.23
2019-01-26T23:15:43.762Z,7.57
2019-01-26T23:18:23.368Z,7.23
2019-01-26T23:21:19.823Z,7.27
2019-01-26T23:24:20.774Z,7.50
2019-01-26T23:27:20.076Z,7.97
2019-01-26T23:30:13.278Z,7.20
2019-01-26T23:32:46.851Z,8.63
2019-01-26T23:35:20.628Z,8.50
2019-01-26T23:37:54.730Z,8.50
2019-01-26T23:40:28.485Z,8.47
2019-01-26T23:43:02.084Z,8.03
2019-01-26T23:45:35.850Z,9.37
2019-01-26T23:48:09.591Z,9.43
2019-01-26T23:50:43.264Z,9.17
2019-01-26T23:53:16.983Z,10.70
2019-01-26T23:55:54.046Z,11.20
2019-01-26T23:58:27.746Z,10.50
